createdAt,value
2022-12-29T00:00:52.265Z,3.70
2022-12-29T00:01:52.133Z,3.20
2022-12-29T00:02:52.299Z,3.40
2022-12-29T00:03:52.228Z,3.60
2022-12-29T00:04:52.132Z,3.80
2022-12-29T00:05:52.150Z,3.80
2022-12-29T00:06:52.115Z,3.60
2022-12-29T00:07:52.112Z,3.60
2022-12-29T00:08:52.132Z,3.40
2022-12-29T00:09:52.122Z,3.40
2022-12-29T00:10:52.097Z,3.60
2022-12-29T00:11:52.094Z,3.20
2022-12-29T00:12:52.102Z,3.80
2022-12-29T00:13:52.086Z,3.90
2022-12-29T00:14:52.091Z,3.70
2022-12-29T00:15:52.112Z,3.50
2022-12-29T00:16:52.099Z,3.70
2022-12-29T00:17:52.068Z,3.40
2022-12-29T00:18:52.067Z,3.60
2022-12-29T00:19:52.064Z,3.30
2022-12-29T00:20:52.061Z,3.40
2022-12-29T00:21:52.072Z,3.70
2022-12-29T00:22:52.050Z,3.30
2022-12-29T00:23:52.049Z,3.40
2022-12-29T00:24:52.055Z,3.50
2022-12-29T00:25:52.043Z,3.20
2022-12-29T00:26:52.038Z,3.00
2022-12-29T00:27:52.035Z,3.20
2022-12-29T00:28:52.026Z,3.20
2022-12-29T00:29:52.034Z,3.00
2022-12-29T00:30:52.045Z,3.50
2022-12-29T00:31:52.114Z,3.40
2022-12-29T00:32:52.011Z,3.50
2022-12-29T00:33:52.003Z,3.00
2022-12-29T00:34:52.010Z,4.10
2022-12-29T00:35:51.996Z,3.40
2022-12-29T00:36:52.001Z,3.50
2022-12-29T00:37:52.021Z,3.30
2022-12-29T00:38:51.991Z,3.30
2022-12-29T00:39:51.981Z,3.50
2022-12-29T00:40:51.976Z,3.40
2022-12-29T00:41:51.974Z,3.80
2022-12-29T00:42:51.968Z,3.30
2022-12-29T00:43:51.969Z,3.40
2022-12-29T00:44:51.976Z,3.30
2022-12-29T00:45:51.962Z,3.00
2022-12-29T00:46:51.998Z,3.30
2022-12-29T00:47:51.951Z,3.30
2022-12-29T00:48:51.947Z,3.30
2022-12-29T00:49:51.950Z,3.40
2022-12-29T00:50:51.934Z,3.40
2022-12-29T00:51:51.936Z,3.20
2022-12-29T00:52:51.926Z,3.10
2022-12-29T00:53:51.945Z,3.10
2022-12-29T00:54:51.919Z,3.10
2022-12-29T00:55:51.934Z,4.10
2022-12-29T00:56:51.911Z,3.20
2022-12-29T00:57:51.909Z,2.90
2022-12-29T00:58:51.903Z,2.70
2022-12-29T00:59:51.902Z,3.20
2022-12-29T01:00:52.085Z,2.90
2022-12-29T01:01:52.029Z,2.90
2022-12-29T01:02:52.041Z,2.80
2022-12-29T01:03:51.886Z,2.70
2022-12-29T01:04:51.880Z,2.70
2022-12-29T01:05:51.871Z,2.40
2022-12-29T01:06:51.876Z,2.30
2022-12-29T01:07:51.874Z,2.50
2022-12-29T01:08:51.865Z,2.20
2022-12-29T01:09:51.924Z,2.50
2022-12-29T01:10:51.858Z,2.50
2022-12-29T01:11:51.860Z,2.10
2022-12-29T01:12:51.849Z,2.00
2022-12-29T01:13:51.852Z,2.20
2022-12-29T01:14:51.837Z,2.10
2022-12-29T01:15:51.900Z,2.10
2022-12-29T01:16:51.833Z,2.00
2022-12-29T01:17:51.829Z,1.80
2022-12-29T01:18:51.823Z,1.90
2022-12-29T01:19:51.820Z,1.80
2022-12-29T01:20:51.820Z,1.80
2022-12-29T01:21:51.815Z,1.80
2022-12-29T01:22:51.805Z,2.20
2022-12-29T01:23:51.800Z,1.80
2022-12-29T01:24:51.796Z,1.40
2022-12-29T01:25:51.819Z,1.50
2022-12-29T01:26:51.993Z,1.20
2022-12-29T01:27:51.791Z,1.00
2022-12-29T01:28:51.783Z,1.10
2022-12-29T01:29:51.779Z,1.10
2022-12-29T01:30:51.776Z,1.20
2022-12-29T01:31:51.828Z,0.80
2022-12-29T01:32:51.772Z,0.80
2022-12-29T01:33:51.765Z,0.70
2022-12-29T01:34:51.756Z,0.70
2022-12-29T01:35:51.756Z,0.50
2022-12-29T01:36:51.764Z,0.90
2022-12-29T01:37:51.755Z,1.20
2022-12-29T01:38:51.746Z,0.70
2022-12-29T01:39:51.736Z,1.20
2022-12-29T01:40:51.745Z,0.80
2022-12-29T01:41:51.751Z,0.80
2022-12-29T01:42:51.732Z,0.70
2022-12-29T01:43:51.722Z,0.80
2022-12-29T01:44:51.718Z,0.60
2022-12-29T01:45:51.779Z,1.10
2022-12-29T01:46:51.709Z,0.80
2022-12-29T01:47:51.708Z,0.80
2022-12-29T01:48:51.703Z,0.80
2022-12-29T01:49:51.704Z,1.10
2022-12-29T01:50:51.703Z,0.60
2022-12-29T01:51:51.709Z,1.40
2022-12-29T01:52:51.707Z,0.70
2022-12-29T01:53:51.687Z,0.70
2022-12-29T01:54:51.680Z,0.80
2022-12-29T01:55:51.676Z,1.20
2022-12-29T01:56:51.671Z,1.10
2022-12-29T01:57:51.703Z,0.80
2022-12-29T01:58:51.663Z,0.60
2022-12-29T01:59:51.661Z,1.30
2022-12-29T02:00:51.703Z,0.80
2022-12-29T02:01:51.859Z,0.70
2022-12-29T02:02:51.689Z,0.60
2022-12-29T02:03:51.644Z,1.10
2022-12-29T02:04:51.640Z,0.90
2022-12-29T02:05:51.635Z,0.70
2022-12-29T02:06:51.638Z,0.60
2022-12-29T02:07:51.637Z,0.70
2022-12-29T02:08:51.624Z,0.60
2022-12-29T02:09:51.624Z,1.40
2022-12-29T02:10:51.616Z,0.80
2022-12-29T02:11:51.614Z,0.70
2022-12-29T02:12:51.614Z,1.10
2022-12-29T02:13:51.631Z,1.50
2022-12-29T02:14:51.603Z,1.20
2022-12-29T02:15:51.599Z,1.10
2022-12-29T02:16:51.672Z,1.00
2022-12-29T02:17:51.589Z,1.00
2022-12-29T02:18:51.592Z,0.60
2022-12-29T02:19:51.577Z,1.70
2022-12-29T02:20:51.576Z,1.30
2022-12-29T02:21:51.573Z,1.20
2022-12-29T02:22:51.569Z,1.10
2022-12-29T02:23:51.563Z,1.30
2022-12-29T02:24:51.565Z,1.40
2022-12-29T02:25:51.558Z,1.30
2022-12-29T02:26:51.563Z,1.30
2022-12-29T02:27:51.557Z,2.50
2022-12-29T02:28:51.562Z,1.10
2022-12-29T02:29:51.576Z,1.30
2022-12-29T02:30:51.542Z,1.60
2022-12-29T02:31:51.605Z,1.60
2022-12-29T02:32:51.544Z,2.10
2022-12-29T02:33:51.525Z,2.30
2022-12-29T02:34:51.521Z,1.70
2022-12-29T02:35:51.521Z,1.70
2022-12-29T02:36:51.527Z,1.20
2022-12-29T02:37:51.508Z,1.00
2022-12-29T02:38:51.507Z,1.30
2022-12-29T02:39:51.504Z,2.00
2022-12-29T02:40:51.499Z,1.80
2022-12-29T02:41:51.494Z,1.20
2022-12-29T02:42:51.504Z,1.90
2022-12-29T02:43:51.498Z,2.10
2022-12-29T02:44:51.507Z,1.00
2022-12-29T02:45:51.584Z,2.40
2022-12-29T02:46:51.475Z,2.30
2022-12-29T02:47:51.472Z,2.20
2022-12-29T02:48:51.475Z,1.40
2022-12-29T02:49:51.463Z,1.30
2022-12-29T02:50:51.461Z,1.80
2022-12-29T02:51:51.457Z,1.00
2022-12-29T02:52:51.469Z,2.20
2022-12-29T02:53:51.448Z,2.20
2022-12-29T02:54:51.447Z,1.30
2022-12-29T02:55:51.438Z,2.30
2022-12-29T02:56:51.438Z,1.80
2022-12-29T02:57:51.432Z,1.80
2022-12-29T02:58:51.444Z,1.50
2022-12-29T02:59:51.428Z,1.60
2022-12-29T03:00:51.463Z,1.60
2022-12-29T03:01:51.653Z,1.50
2022-12-29T03:02:51.544Z,2.10
2022-12-29T03:03:51.413Z,1.50
2022-12-29T03:04:51.409Z,1.20
2022-12-29T03:05:51.407Z,2.20
2022-12-29T03:06:51.399Z,1.40
2022-12-29T03:07:51.398Z,1.80
2022-12-29T03:08:51.414Z,2.30
2022-12-29T03:09:51.394Z,1.70
2022-12-29T03:10:51.386Z,1.00
2022-12-29T03:11:51.379Z,1.60
2022-12-29T03:12:51.380Z,1.10
2022-12-29T03:13:51.377Z,1.30
2022-12-29T03:14:51.371Z,1.10
2022-12-29T03:15:51.370Z,2.10
2022-12-29T03:16:51.370Z,1.60
2022-12-29T03:17:51.380Z,2.30
2022-12-29T03:18:51.356Z,1.70
2022-12-29T03:19:51.358Z,1.90
2022-12-29T03:20:51.349Z,2.10
2022-12-29T03:21:51.343Z,1.00
2022-12-29T03:22:51.341Z,2.50
2022-12-29T03:23:51.343Z,1.30
2022-12-29T03:24:51.334Z,1.40
2022-12-29T03:25:51.327Z,1.20
2022-12-29T03:26:51.527Z,1.30
2022-12-29T03:27:51.322Z,2.00
2022-12-29T03:28:51.328Z,1.70
2022-12-29T03:29:51.311Z,0.90
2022-12-29T03:30:51.387Z,1.00
2022-12-29T03:31:51.306Z,1.80
2022-12-29T03:32:51.302Z,1.40
2022-12-29T03:33:51.316Z,1.90
2022-12-29T03:34:51.295Z,1.40
2022-12-29T03:35:51.290Z,1.00
2022-12-29T03:36:51.286Z,1.40
2022-12-29T03:37:51.281Z,1.20
2022-12-29T03:38:51.283Z,1.00
2022-12-29T03:39:51.278Z,1.20
2022-12-29T03:40:51.270Z,1.50
2022-12-29T03:41:51.269Z,1.90
2022-12-29T03:42:51.265Z,1.60
2022-12-29T03:43:51.262Z,1.30
2022-12-29T03:44:51.261Z,1.10
2022-12-29T03:45:51.354Z,0.90
2022-12-29T03:46:51.251Z,1.00
2022-12-29T03:47:51.248Z,1.90
2022-12-29T03:48:51.244Z,1.00
2022-12-29T03:49:51.262Z,1.50
2022-12-29T03:50:51.239Z,1.70
2022-12-29T03:51:52.090Z,1.00
2022-12-29T03:52:51.232Z,1.00
2022-12-29T03:53:51.223Z,1.00
2022-12-29T03:54:51.328Z,0.90
2022-12-29T03:55:51.218Z,0.90
2022-12-29T03:56:51.218Z,1.50
2022-12-29T03:57:51.216Z,1.20
2022-12-29T03:58:51.214Z,1.10
2022-12-29T03:59:51.199Z,1.70
2022-12-29T04:00:51.207Z,0.80
2022-12-29T04:01:51.343Z,1.60
2022-12-29T04:02:51.447Z,1.10
2022-12-29T04:03:51.277Z,1.40
2022-12-29T04:04:51.185Z,1.00
2022-12-29T04:05:51.202Z,1.30
2022-12-29T04:06:51.186Z,1.10
2022-12-29T04:07:51.172Z,1.40
2022-12-29T04:08:51.168Z,2.00
2022-12-29T04:09:51.163Z,1.50
2022-12-29T04:10:51.167Z,1.40
2022-12-29T04:11:51.165Z,1.30
2022-12-29T04:12:51.154Z,1.60
2022-12-29T04:13:51.149Z,0.80
2022-12-29T04:14:51.159Z,0.70
2022-12-29T04:15:51.208Z,0.70
2022-12-29T04:16:51.146Z,0.80
2022-12-29T04:17:51.146Z,0.90
2022-12-29T04:18:51.139Z,0.80
2022-12-29T04:19:51.130Z,1.00
2022-12-29T04:20:51.125Z,0.80
2022-12-29T04:21:51.143Z,0.80
2022-12-29T04:22:51.127Z,1.20
2022-12-29T04:23:51.122Z,0.60
2022-12-29T04:24:51.112Z,0.70
2022-12-29T04:25:51.107Z,0.70
2022-12-29T04:26:51.102Z,0.70
2022-12-29T04:27:51.097Z,0.70
2022-12-29T04:28:51.107Z,0.90
2022-12-29T04:29:51.093Z,0.70
2022-12-29T04:30:51.161Z,1.10
2022-12-29T04:31:51.284Z,0.60
2022-12-29T04:32:51.079Z,0.70
2022-12-29T04:33:51.076Z,1.10
2022-12-29T04:34:51.076Z,0.80
2022-12-29T04:35:51.067Z,0.90
2022-12-29T04:36:51.080Z,1.40
2022-12-29T04:37:51.180Z,0.60
2022-12-29T04:38:51.060Z,1.90
2022-12-29T04:39:51.055Z,0.50
2022-12-29T04:40:51.067Z,1.20
2022-12-29T04:41:51.059Z,1.40
2022-12-29T04:42:51.059Z,0.60
2022-12-29T04:43:51.053Z,1.40
2022-12-29T04:44:51.068Z,1.40
2022-12-29T04:45:51.034Z,0.80
2022-12-29T04:46:51.173Z,1.10
2022-12-29T04:47:51.049Z,0.90
2022-12-29T04:48:51.046Z,0.90
2022-12-29T04:49:51.016Z,1.30
2022-12-29T04:50:51.019Z,1.20
2022-12-29T04:51:51.014Z,1.90
2022-12-29T04:52:51.011Z,1.40
2022-12-29T04:53:51.021Z,0.80
2022-12-29T04:54:50.998Z,1.80
2022-12-29T04:55:51.006Z,0.80
2022-12-29T04:56:50.995Z,1.00
2022-12-29T04:57:50.992Z,0.70
2022-12-29T04:58:50.986Z,1.00
2022-12-29T04:59:50.982Z,2.40
2022-12-29T05:00:50.989Z,1.30
2022-12-29T05:01:51.112Z,1.20
2022-12-29T05:02:51.114Z,1.80
2022-12-29T05:03:51.057Z,0.90
2022-12-29T05:04:50.978Z,1.10
2022-12-29T05:05:50.959Z,0.90
2022-12-29T05:06:50.958Z,1.30
2022-12-29T05:07:50.955Z,1.70
2022-12-29T05:08:50.953Z,1.90
2022-12-29T05:09:51.174Z,1.30
2022-12-29T05:10:50.947Z,0.80
2022-12-29T05:11:50.941Z,1.00
2022-12-29T05:12:50.936Z,0.90
2022-12-29T05:13:50.936Z,1.50
2022-12-29T05:14:50.929Z,1.80
2022-12-29T05:15:50.965Z,2.10
2022-12-29T05:16:50.939Z,1.40
2022-12-29T05:17:50.915Z,1.70
2022-12-29T05:18:50.920Z,1.00
2022-12-29T05:19:50.914Z,1.20
2022-12-29T05:20:50.931Z,1.90
2022-12-29T05:21:50.900Z,1.60
2022-12-29T05:22:50.901Z,1.30
2022-12-29T05:23:50.898Z,1.40
2022-12-29T05:24:50.891Z,1.90
2022-12-29T05:25:50.913Z,1.40
2022-12-29T05:26:50.885Z,1.40
2022-12-29T05:27:50.881Z,1.90
2022-12-29T05:28:50.880Z,1.30
2022-12-29T05:29:50.877Z,1.50
2022-12-29T05:30:50.872Z,1.30
2022-12-29T05:31:50.878Z,0.90
2022-12-29T05:32:50.865Z,0.80
2022-12-29T05:33:50.864Z,1.00
2022-12-29T05:34:50.855Z,2.10
2022-12-29T05:35:50.857Z,1.10
2022-12-29T05:36:50.852Z,2.00
2022-12-29T05:37:50.852Z,1.00
2022-12-29T05:38:50.843Z,2.40
2022-12-29T05:39:50.845Z,1.80
2022-12-29T05:40:50.841Z,2.20
2022-12-29T05:41:50.875Z,1.80
2022-12-29T05:42:50.825Z,1.70
2022-12-29T05:43:50.822Z,2.70
2022-12-29T05:44:50.821Z,1.90
2022-12-29T05:45:50.821Z,1.30
2022-12-29T05:46:50.900Z,1.80
2022-12-29T05:47:50.808Z,1.20
2022-12-29T05:48:50.806Z,1.20
2022-12-29T05:49:50.800Z,1.50
2022-12-29T05:50:50.804Z,1.60
2022-12-29T05:51:50.796Z,1.30
2022-12-29T05:52:50.795Z,0.80
2022-12-29T05:53:50.787Z,2.40
2022-12-29T05:54:50.805Z,1.30
2022-12-29T05:55:50.779Z,1.80
2022-12-29T05:56:50.781Z,2.20
2022-12-29T05:57:50.808Z,1.60
2022-12-29T05:58:50.771Z,1.20
2022-12-29T05:59:50.769Z,1.40
2022-12-29T06:00:50.763Z,2.30
2022-12-29T06:01:50.986Z,2.20
2022-12-29T06:02:50.905Z,2.20
2022-12-29T06:03:50.897Z,1.20
2022-12-29T06:04:50.751Z,1.70
2022-12-29T06:05:50.746Z,1.80
2022-12-29T06:06:50.754Z,2.30
2022-12-29T06:07:50.738Z,1.40
2022-12-29T06:08:50.750Z,1.00
2022-12-29T06:09:50.733Z,1.90
2022-12-29T06:10:50.737Z,2.60
2022-12-29T06:11:50.724Z,1.00
2022-12-29T06:12:50.724Z,1.90
2022-12-29T06:13:50.743Z,1.30
2022-12-29T06:14:50.724Z,2.20
2022-12-29T06:15:50.727Z,1.40
2022-12-29T06:16:50.756Z,1.70
2022-12-29T06:17:50.719Z,2.10
2022-12-29T06:18:50.706Z,1.40
2022-12-29T06:19:50.709Z,2.40
2022-12-29T06:20:50.725Z,1.40
2022-12-29T06:21:50.691Z,1.70
2022-12-29T06:22:50.698Z,1.70
2022-12-29T06:23:50.681Z,2.00
2022-12-29T06:24:50.685Z,2.00
2022-12-29T06:25:50.671Z,1.40
2022-12-29T06:26:50.671Z,1.20
2022-12-29T06:27:50.667Z,1.30
2022-12-29T06:28:50.672Z,1.80
2022-12-29T06:29:50.710Z,1.60
2022-12-29T06:30:50.675Z,2.00
2022-12-29T06:31:50.719Z,1.90
2022-12-29T06:32:50.652Z,2.10
2022-12-29T06:33:50.663Z,1.80
2022-12-29T06:34:50.663Z,1.30
2022-12-29T06:35:50.661Z,2.10
2022-12-29T06:36:50.990Z,1.20
2022-12-29T06:37:50.633Z,1.80
2022-12-29T06:38:50.637Z,1.10
2022-12-29T06:39:50.627Z,1.40
2022-12-29T06:40:50.621Z,1.40
2022-12-29T06:41:50.618Z,1.50
2022-12-29T06:42:50.615Z,1.10
2022-12-29T06:43:50.613Z,2.00
2022-12-29T06:44:50.631Z,1.90
2022-12-29T06:45:50.682Z,1.60
2022-12-29T06:46:50.599Z,1.50
2022-12-29T06:47:50.597Z,1.70
2022-12-29T06:48:50.604Z,1.60
2022-12-29T06:49:50.592Z,1.90
2022-12-29T06:50:50.580Z,1.30
2022-12-29T06:51:50.582Z,1.60
2022-12-29T06:52:50.578Z,1.50
2022-12-29T06:53:50.579Z,2.20
2022-12-29T06:54:50.576Z,1.30
2022-12-29T06:55:50.572Z,1.80
2022-12-29T06:56:50.569Z,1.80
2022-12-29T06:57:50.588Z,1.50
2022-12-29T06:58:50.569Z,1.60
2022-12-29T06:59:50.567Z,2.50
2022-12-29T07:00:50.569Z,1.80
2022-12-29T07:01:50.669Z,3.00
2022-12-29T07:02:50.690Z,1.80
2022-12-29T07:03:50.541Z,1.80
2022-12-29T07:04:50.541Z,2.00
2022-12-29T07:05:50.532Z,2.90
2022-12-29T07:06:50.527Z,2.20
2022-12-29T07:07:50.532Z,1.80
2022-12-29T07:08:50.523Z,2.60
2022-12-29T07:09:50.523Z,2.20
2022-12-29T07:10:50.524Z,2.70
2022-12-29T07:11:50.513Z,1.90
2022-12-29T07:12:50.510Z,1.90
2022-12-29T07:13:50.510Z,3.40
2022-12-29T07:14:50.498Z,2.10
2022-12-29T07:15:50.497Z,2.60
2022-12-29T07:16:50.605Z,2.20
2022-12-29T07:17:50.531Z,2.70
2022-12-29T07:18:50.485Z,2.90
2022-12-29T07:19:50.491Z,3.30
2022-12-29T07:20:50.477Z,3.10
2022-12-29T07:21:50.478Z,3.10
2022-12-29T07:22:50.473Z,2.40
2022-12-29T07:23:50.474Z,2.60
2022-12-29T07:24:50.467Z,2.80
2022-12-29T07:25:50.463Z,1.60
2022-12-29T07:26:50.461Z,2.50
2022-12-29T07:27:50.463Z,1.70
2022-12-29T07:28:50.454Z,1.50
2022-12-29T07:29:50.450Z,2.80
2022-12-29T07:30:50.443Z,2.40
2022-12-29T07:31:50.478Z,2.90
2022-12-29T07:32:50.438Z,2.30
2022-12-29T07:33:50.465Z,2.40
2022-12-29T07:34:50.434Z,1.70
2022-12-29T07:35:50.426Z,2.10
2022-12-29T07:36:50.424Z,1.50
2022-12-29T07:37:50.422Z,2.20
2022-12-29T07:38:50.416Z,2.30
2022-12-29T07:39:50.411Z,3.10
2022-12-29T07:40:50.407Z,2.40
2022-12-29T07:41:50.403Z,2.60
2022-12-29T07:42:50.406Z,1.80
2022-12-29T07:43:50.397Z,3.80
2022-12-29T07:44:50.401Z,2.70
2022-12-29T07:45:50.416Z,2.60
2022-12-29T07:46:54.325Z,2.70
2022-12-29T07:47:50.396Z,2.60
2022-12-29T07:48:50.380Z,1.60
2022-12-29T07:49:50.399Z,3.40
2022-12-29T07:50:50.370Z,2.40
2022-12-29T07:51:50.388Z,2.30
2022-12-29T07:52:50.363Z,3.00
2022-12-29T07:53:50.371Z,2.80
2022-12-29T07:54:50.356Z,2.60
2022-12-29T07:55:50.364Z,3.20
2022-12-29T07:56:50.355Z,2.50
2022-12-29T07:57:50.358Z,2.30
2022-12-29T07:58:50.345Z,2.50
2022-12-29T07:59:50.353Z,2.30
2022-12-29T08:00:50.347Z,2.00
2022-12-29T08:01:50.437Z,3.60
2022-12-29T08:02:50.329Z,3.50
2022-12-29T08:03:56.907Z,3.60
2022-12-29T08:04:50.320Z,2.60
2022-12-29T08:05:50.347Z,1.90
2022-12-29T08:06:50.312Z,2.90
2022-12-29T08:07:50.319Z,3.30
2022-12-29T08:08:50.325Z,2.60
2022-12-29T08:09:50.307Z,2.70
2022-12-29T08:10:50.299Z,4.10
2022-12-29T08:11:50.330Z,4.10
2022-12-29T08:12:50.290Z,3.10
2022-12-29T08:13:50.291Z,3.70
2022-12-29T08:14:50.290Z,3.00
2022-12-29T08:15:50.303Z,2.80
2022-12-29T08:16:50.293Z,2.70
2022-12-29T08:17:50.300Z,3.40
2022-12-29T08:18:50.288Z,2.40
2022-12-29T08:19:50.272Z,3.00
2022-12-29T08:20:55.619Z,2.90
2022-12-29T08:21:50.291Z,3.50
2022-12-29T08:22:50.255Z,2.90
2022-12-29T08:23:50.257Z,4.10
2022-12-29T08:24:50.250Z,2.30
2022-12-29T08:25:50.250Z,3.00
2022-12-29T08:26:50.244Z,3.00
2022-12-29T08:27:50.241Z,3.00
2022-12-29T08:28:50.237Z,4.50
2022-12-29T08:29:50.234Z,3.20
2022-12-29T08:30:50.294Z,2.70
2022-12-29T08:31:50.241Z,3.40
2022-12-29T08:32:50.229Z,2.70
2022-12-29T08:33:50.230Z,3.10
2022-12-29T08:34:50.220Z,4.00
2022-12-29T08:35:50.216Z,3.30
2022-12-29T08:36:50.666Z,3.70
2022-12-29T08:37:50.220Z,1.90
2022-12-29T08:38:50.205Z,3.40
2022-12-29T08:39:50.198Z,2.40
2022-12-29T08:40:50.192Z,2.90
2022-12-29T08:41:50.190Z,3.10
2022-12-29T08:42:50.192Z,2.60
2022-12-29T08:43:50.193Z,3.40
2022-12-29T08:44:50.176Z,3.60
2022-12-29T08:45:50.180Z,3.90
2022-12-29T08:46:50.254Z,2.90
2022-12-29T08:47:50.169Z,4.00
2022-12-29T08:48:50.164Z,2.40
2022-12-29T08:49:50.160Z,4.10
2022-12-29T08:50:50.160Z,4.80
2022-12-29T08:51:50.156Z,3.00
2022-12-29T08:52:50.152Z,4.10
2022-12-29T08:53:50.172Z,3.50
2022-12-29T08:54:50.153Z,4.40
2022-12-29T08:55:50.152Z,3.90
2022-12-29T08:56:50.135Z,3.90
2022-12-29T08:57:50.133Z,4.10
2022-12-29T08:58:50.129Z,4.40
2022-12-29T08:59:50.166Z,4.00
2022-12-29T09:00:50.122Z,4.30
2022-12-29T09:01:50.314Z,5.10
2022-12-29T09:02:50.304Z,2.50
2022-12-29T09:04:50.149Z,4.00
2022-12-29T09:05:50.102Z,5.20
2022-12-29T09:06:50.117Z,4.20
2022-12-29T09:07:50.111Z,4.40
2022-12-29T09:08:50.098Z,5.70
2022-12-29T09:09:50.116Z,3.80
2022-12-29T09:10:50.082Z,4.10
2022-12-29T09:11:50.083Z,4.90
2022-12-29T09:12:50.075Z,4.50
2022-12-29T09:13:50.114Z,3.40
2022-12-29T09:14:50.074Z,3.90
2022-12-29T09:15:50.089Z,3.40
2022-12-29T09:16:50.060Z,3.90
2022-12-29T09:17:50.059Z,3.90
2022-12-29T09:18:50.053Z,5.10
2022-12-29T09:19:50.050Z,4.10
2022-12-29T09:20:50.050Z,3.60
2022-12-29T09:21:50.046Z,3.60
2022-12-29T09:22:50.041Z,4.50
2022-12-29T09:23:50.036Z,4.30
2022-12-29T09:24:50.038Z,5.60
2022-12-29T09:25:50.048Z,5.00
2022-12-29T09:26:50.042Z,4.50
2022-12-29T09:27:50.027Z,4.00
2022-12-29T09:28:50.047Z,3.50
2022-12-29T09:29:50.028Z,5.10
2022-12-29T09:30:50.010Z,4.10
2022-12-29T09:31:50.070Z,4.50
2022-12-29T09:32:55.015Z,3.80
2022-12-29T09:33:50.017Z,5.10
2022-12-29T09:34:50.002Z,4.10
2022-12-29T09:35:49.997Z,4.20
2022-12-29T09:36:49.990Z,3.50
2022-12-29T09:37:50.185Z,4.10
2022-12-29T09:38:49.990Z,5.20
2022-12-29T09:39:54.333Z,4.40
2022-12-29T09:40:49.978Z,3.80
2022-12-29T09:41:49.995Z,4.20
2022-12-29T09:42:49.968Z,4.20
2022-12-29T09:43:49.964Z,3.90
2022-12-29T09:44:49.968Z,4.30
2022-12-29T09:45:49.962Z,5.00
2022-12-29T09:46:50.000Z,4.20
2022-12-29T09:47:49.953Z,4.50
2022-12-29T09:48:49.960Z,4.90
2022-12-29T09:49:49.951Z,4.80
2022-12-29T09:50:49.945Z,4.30
2022-12-29T09:51:49.951Z,4.40
2022-12-29T09:52:49.942Z,4.00
2022-12-29T09:53:49.929Z,5.20
2022-12-29T09:54:58.101Z,3.80
2022-12-29T09:55:49.927Z,3.90
2022-12-29T09:56:49.925Z,4.60
2022-12-29T09:57:49.939Z,4.50
2022-12-29T09:58:49.933Z,4.80
2022-12-29T09:59:49.929Z,4.90
2022-12-29T10:00:55.088Z,5.40
2022-12-29T10:01:50.084Z,4.70
2022-12-29T10:02:50.192Z,4.50
2022-12-29T10:03:49.895Z,4.30
2022-12-29T10:04:49.892Z,3.60
2022-12-29T10:05:49.893Z,3.80
2022-12-29T10:07:27.455Z,5.70
2022-12-29T10:07:49.883Z,3.40
2022-12-29T10:08:49.875Z,5.40
2022-12-29T10:09:49.871Z,3.60
2022-12-29T10:10:49.868Z,4.60
2022-12-29T10:11:49.867Z,6.40
2022-12-29T10:12:49.861Z,5.10
2022-12-29T10:13:49.881Z,5.60
2022-12-29T10:14:49.859Z,4.30
2022-12-29T10:15:49.848Z,4.80
2022-12-29T10:16:49.876Z,4.20
2022-12-29T10:17:49.851Z,5.20
2022-12-29T10:18:49.848Z,3.90
2022-12-29T10:19:49.842Z,3.40
2022-12-29T10:20:49.838Z,5.50
2022-12-29T10:21:49.841Z,4.20
2022-12-29T10:22:49.821Z,5.30
2022-12-29T10:23:49.817Z,6.70
2022-12-29T10:24:49.814Z,4.60
2022-12-29T10:25:49.812Z,5.50
2022-12-29T10:26:49.810Z,4.10
2022-12-29T10:27:49.900Z,4.00
2022-12-29T10:28:49.799Z,5.10
2022-12-29T10:29:49.816Z,3.90
2022-12-29T10:30:49.793Z,4.80
2022-12-29T10:31:49.818Z,3.90
2022-12-29T10:32:49.804Z,4.60
2022-12-29T10:33:49.781Z,4.10
2022-12-29T10:34:49.787Z,6.20
2022-12-29T10:35:49.783Z,4.90
2022-12-29T10:36:49.888Z,4.40
2022-12-29T10:37:49.769Z,4.30
2022-12-29T10:38:49.761Z,4.80
2022-12-29T10:39:49.763Z,4.20
2022-12-29T10:40:49.755Z,4.10
2022-12-29T10:41:49.812Z,4.60
2022-12-29T10:42:50.166Z,5.00
2022-12-29T10:43:49.760Z,4.80
2022-12-29T10:44:49.744Z,3.80
2022-12-29T10:45:49.861Z,4.50
2022-12-29T10:46:49.731Z,5.10
2022-12-29T10:47:49.731Z,3.50
2022-12-29T10:48:49.726Z,5.00
2022-12-29T10:49:49.732Z,5.20
2022-12-29T10:50:49.723Z,5.60
2022-12-29T10:51:49.715Z,6.00
2022-12-29T10:52:49.723Z,5.40
2022-12-29T10:53:49.712Z,4.70
2022-12-29T10:54:49.714Z,5.30
2022-12-29T10:55:49.702Z,4.80
2022-12-29T10:56:49.701Z,5.20
2022-12-29T10:57:49.693Z,4.30
2022-12-29T10:58:50.047Z,4.90
2022-12-29T10:59:49.725Z,5.00
2022-12-29T11:00:49.758Z,3.40
2022-12-29T11:01:49.873Z,4.80
2022-12-29T11:02:49.887Z,5.40
2022-12-29T11:03:49.682Z,5.10
2022-12-29T11:04:49.674Z,4.80
2022-12-29T11:05:49.666Z,4.00
2022-12-29T11:06:49.670Z,4.30
2022-12-29T11:07:49.812Z,4.40
2022-12-29T11:08:49.662Z,4.90
2022-12-29T11:09:49.656Z,5.40
2022-12-29T11:10:49.697Z,4.80
2022-12-29T11:11:49.665Z,4.90
2022-12-29T11:12:49.663Z,6.40
2022-12-29T11:13:49.668Z,5.90
2022-12-29T11:14:49.670Z,4.40
2022-12-29T11:15:49.637Z,5.70
2022-12-29T11:16:49.751Z,4.50
2022-12-29T11:17:49.684Z,4.30
2022-12-29T11:18:49.625Z,4.50
2022-12-29T11:19:49.676Z,5.00
2022-12-29T11:20:49.618Z,3.40
2022-12-29T11:21:49.656Z,4.30
2022-12-29T11:22:49.649Z,4.50
2022-12-29T11:23:49.624Z,4.50
2022-12-29T11:24:49.632Z,3.90
2022-12-29T11:25:49.595Z,6.20
2022-12-29T11:26:49.603Z,5.10
2022-12-29T11:27:49.595Z,5.00
2022-12-29T11:28:49.598Z,5.10
2022-12-29T11:29:49.590Z,5.30
2022-12-29T11:30:49.583Z,4.80
2022-12-29T11:31:49.753Z,5.00
2022-12-29T11:32:49.575Z,6.30
2022-12-29T11:33:49.602Z,6.60
2022-12-29T11:34:49.572Z,4.90
2022-12-29T11:35:49.582Z,3.90
2022-12-29T11:36:49.559Z,5.60
2022-12-29T11:37:49.554Z,5.40
2022-12-29T11:38:49.554Z,4.80
2022-12-29T11:39:49.548Z,5.80
2022-12-29T11:40:49.549Z,4.40
2022-12-29T11:41:49.541Z,5.60
2022-12-29T11:42:49.548Z,4.90
2022-12-29T11:43:49.532Z,4.20
2022-12-29T11:44:49.528Z,6.10
2022-12-29T11:45:49.557Z,5.70
2022-12-29T11:46:49.522Z,5.80
2022-12-29T11:47:49.777Z,4.00
2022-12-29T11:48:49.518Z,6.00
2022-12-29T11:49:49.543Z,6.60
2022-12-29T11:50:49.512Z,5.20
2022-12-29T11:51:49.505Z,5.50
2022-12-29T11:52:49.504Z,8.40
2022-12-29T11:53:49.506Z,4.40
2022-12-29T11:54:49.494Z,5.20
2022-12-29T11:55:49.491Z,5.10
2022-12-29T11:56:49.489Z,5.80
2022-12-29T11:57:49.481Z,4.90
2022-12-29T11:58:49.487Z,7.10
2022-12-29T11:59:49.483Z,6.40
2022-12-29T12:00:49.479Z,5.80
2022-12-29T12:01:49.519Z,7.10
2022-12-29T12:02:49.617Z,5.60
2022-12-29T12:03:49.602Z,6.60
2022-12-29T12:04:49.458Z,6.90
2022-12-29T12:05:49.476Z,6.50
2022-12-29T12:06:49.464Z,5.90
2022-12-29T12:07:49.450Z,6.40
2022-12-29T12:08:49.457Z,7.00
2022-12-29T12:09:49.444Z,5.20
2022-12-29T12:10:49.441Z,5.00
2022-12-29T12:11:49.434Z,7.10
2022-12-29T12:12:49.433Z,6.20
2022-12-29T12:13:49.432Z,5.00
2022-12-29T12:14:49.427Z,5.00
2022-12-29T12:15:54.479Z,6.90
2022-12-29T12:16:49.454Z,8.20
2022-12-29T12:17:49.408Z,6.40
2022-12-29T12:18:49.441Z,4.20
2022-12-29T12:19:49.402Z,5.40
2022-12-29T12:20:49.401Z,6.10
2022-12-29T12:21:49.423Z,5.70
2022-12-29T12:22:49.394Z,4.70
2022-12-29T12:23:49.390Z,5.30
2022-12-29T12:24:49.385Z,6.60
2022-12-29T12:25:49.382Z,5.80
2022-12-29T12:26:49.379Z,7.00
2022-12-29T12:27:49.378Z,4.90
2022-12-29T12:28:49.373Z,7.10
2022-12-29T12:29:49.366Z,6.30
2022-12-29T12:30:49.472Z,5.80
2022-12-29T12:31:49.367Z,5.80
2022-12-29T12:32:49.358Z,5.60
2022-12-29T12:33:49.350Z,5.80
2022-12-29T12:34:49.345Z,4.70
2022-12-29T12:35:49.343Z,6.00
2022-12-29T12:36:49.341Z,5.20
2022-12-29T12:37:49.362Z,5.80
2022-12-29T12:38:49.336Z,5.60
2022-12-29T12:39:49.331Z,5.70
2022-12-29T12:40:49.356Z,4.10
2022-12-29T12:41:49.321Z,4.10
2022-12-29T12:42:49.321Z,6.10
2022-12-29T12:43:49.315Z,6.40
2022-12-29T12:44:49.313Z,4.70
2022-12-29T12:45:49.314Z,5.00
2022-12-29T12:46:49.381Z,4.50
2022-12-29T12:47:49.764Z,5.10
2022-12-29T12:48:49.306Z,5.50
2022-12-29T12:49:49.294Z,5.00
2022-12-29T12:50:49.295Z,4.60
2022-12-29T12:51:49.293Z,6.40
2022-12-29T12:52:49.280Z,5.80
2022-12-29T12:53:49.304Z,4.30
2022-12-29T12:54:49.272Z,4.90
2022-12-29T12:55:49.271Z,5.40
2022-12-29T12:56:49.265Z,5.20
2022-12-29T12:57:49.262Z,4.80
2022-12-29T12:58:49.263Z,5.20
2022-12-29T12:59:49.264Z,4.60
2022-12-29T13:00:49.256Z,4.70
2022-12-29T13:01:49.385Z,4.40
2022-12-29T13:02:49.559Z,4.90
2022-12-29T13:03:49.287Z,4.00
2022-12-29T13:04:49.237Z,4.40
2022-12-29T13:05:49.247Z,4.50
2022-12-29T13:06:49.228Z,3.90
2022-12-29T13:07:49.225Z,4.90
2022-12-29T13:08:49.225Z,5.30
2022-12-29T13:09:49.250Z,4.80
2022-12-29T13:10:53.048Z,5.50
2022-12-29T13:11:49.211Z,5.20
2022-12-29T13:12:49.212Z,5.60
2022-12-29T13:13:49.239Z,6.70
2022-12-29T13:14:49.203Z,4.00
2022-12-29T13:15:49.220Z,4.80
2022-12-29T13:16:49.197Z,5.50
2022-12-29T13:17:49.192Z,4.60
2022-12-29T13:18:49.188Z,4.30
2022-12-29T13:19:49.182Z,4.80